sensor_id;sensor_type;location;lat;lon;timestamp;temperature;humidity
20380;DHT22;10349;48.666;8.948;2024-03-08T00:02:23;2.50;99.90
20380;DHT22;10349;48.666;8.948;2024-03-08T00:04:49;2.50;99.90
20380;DHT22;10349;48.666;8.948;2024-03-08T00:07:15;2.50;99.90
20380;DHT22;10349;48.666;8.948;2024-03-08T00:09:40;2.40;99.90
20380;DHT22;10349;48.666;8.948;2024-03-08T00:12:06;2.40;99.90
20380;DHT22;10349;48.666;8.948;2024-03-08T00:14:32;2.40;99.90
20380;DHT22;10349;48.666;8.948;2024-03-08T00:16:58;2.30;99.90
20380;DHT22;10349;48.666;8.948;2024-03-08T00:19:24;2.30;99.90
20380;DHT22;10349;48.666;8.948;2024-03-08T00:21:50;2.20;99.90
20380;DHT22;10349;48.666;8.948;2024-03-08T00:24:15;2.30;99.90
20380;DHT22;10349;48.666;8.948;2024-03-08T00:26:41;2.20;99.90
20380;DHT22;10349;48.666;8.948;2024-03-08T00:29:07;2.20;99.90
20380;DHT22;10349;48.666;8.948;2024-03-08T00:31:33;2.20;99.90
20380;DHT22;10349;48.666;8.948;2024-03-08T00:33:59;2.10;99.90
20380;DHT22;10349;48.666;8.948;2024-03-08T00:36:25;2.10;99.90
20380;DHT22;10349;48.666;8.948;2024-03-08T00:38:50;2.10;99.90
20380;DHT22;10349;48.666;8.948;2024-03-08T00:41:16;2.00;99.90
20380;DHT22;10349;48.666;8.948;2024-03-08T00:43:42;2.00;99.90
20380;DHT22;10349;48.666;8.948;2024-03-08T00:46:07;2.00;99.90
20380;DHT22;10349;48.666;8.948;2024-03-08T00:48:33;2.00;99.90
20380;DHT22;10349;48.666;8.948;2024-03-08T00:50:59;2.00;99.90
20380;DHT22;10349;48.666;8.948;2024-03-08T00:53:25;2.00;99.90
20380;DHT22;10349;48.666;8.948;2024-03-08T00:55:50;1.90;99.90
20380;DHT22;10349;48.666;8.948;2024-03-08T00:58:16;1.90;99.90
20380;DHT22;10349;48.666;8.948;2024-03-08T01:00:41;1.90;99.90
20380;DHT22;10349;48.666;8.948;2024-03-08T01:03:07;1.80;99.90
20380;DHT22;10349;48.666;8.948;2024-03-08T01:05:33;1.80;99.90
20380;DHT22;10349;48.666;8.948;2024-03-08T01:08:00;1.80;99.90
20380;DHT22;10349;48.666;8.948;2024-03-08T01:10:26;1.80;99.90
20380;DHT22;10349;48.666;8.948;2024-03-08T01:12:52;1.80;99.90
20380;DHT22;10349;48.666;8.948;2024-03-08T01:15:20;1.70;99.90
20380;DHT22;10349;48.666;8.948;2024-03-08T01:17:45;1.70;99.90
20380;DHT22;10349;48.666;8.948;2024-03-08T01:20:11;1.70;99.90
20380;DHT22;10349;48.666;8.948;2024-03-08T01:22:38;1.70;99.90
20380;DHT22;10349;48.666;8.948;2024-03-08T01:25:04;1.70;99.90
20380;DHT22;10349;48.666;8.948;2024-03-08T01:27:30;1.70;99.90
20380;DHT22;10349;48.666;8.948;2024-03-08T01:29:56;1.70;99.90
20380;DHT22;10349;48.666;8.948;2024-03-08T01:32:22;1.70;99.90
20380;DHT22;10349;48.666;8.948;2024-03-08T01:34:49;1.60;99.90
20380;DHT22;10349;48.666;8.948;2024-03-08T01:37:14;1.60;99.90
20380;DHT22;10349;48.666;8.948;2024-03-08T01:39:40;1.50;99.90
20380;DHT22;10349;48.666;8.948;2024-03-08T01:42:06;1.50;99.90
20380;DHT22;10349;48.666;8.948;2024-03-08T01:44:31;1.40;99.90
20380;DHT22;10349;48.666;8.948;2024-03-08T01:46:57;1.40;99.90
20380;DHT22;10349;48.666;8.948;2024-03-08T01:49:24;1.40;99.90
20380;DHT22;10349;48.666;8.948;2024-03-08T01:51:51;1.30;99.90
20380;DHT22;10349;48.666;8.948;2024-03-08T01:54:18;1.30;99.90
20380;DHT22;10349;48.666;8.948;2024-03-08T01:56:46;1.30;99.90
20380;DHT22;10349;48.666;8.948;2024-03-08T01:59:12;1.30;99.90
20380;DHT22;10349;48.666;8.948;2024-03-08T02:01:40;1.30;99.90
20380;DHT22;10349;48.666;8.948;2024-03-08T02:04:05;1.20;99.90
20380;DHT22;10349;48.666;8.948;2024-03-08T02:06:32;1.20;99.90
20380;DHT22;10349;48.666;8.948;2024-03-08T02:08:58;1.20;99.90
20380;DHT22;10349;48.666;8.948;2024-03-08T02:11:24;1.10;99.90
20380;DHT22;10349;48.666;8.948;2024-03-08T02:13:50;1.10;99.90
20380;DHT22;10349;48.666;8.948;2024-03-08T02:16:22;1.10;99.90
20380;DHT22;10349;48.666;8.948;2024-03-08T02:18:48;1.10;99.90
20380;DHT22;10349;48.666;8.948;2024-03-08T02:21:16;1.10;99.90
20380;DHT22;10349;48.666;8.948;2024-03-08T02:23:43;1.00;99.90
20380;DHT22;10349;48.666;8.948;2024-03-08T02:26:09;1.00;99.90
20380;DHT22;10349;48.666;8.948;2024-03-08T02:28:35;1.00;99.90
20380;DHT22;10349;48.666;8.948;2024-03-08T02:31:01;1.00;99.90
20380;DHT22;10349;48.666;8.948;2024-03-08T02:33:28;0.90;99.90
20380;DHT22;10349;48.666;8.948;2024-03-08T02:35:54;0.90;99.90
20380;DHT22;10349;48.666;8.948;2024-03-08T02:38:22;0.80;99.90
20380;DHT22;10349;48.666;8.948;2024-03-08T02:40:52;0.80;99.90
20380;DHT22;10349;48.666;8.948;2024-03-08T02:43:19;0.80;99.90
20380;DHT22;10349;48.666;8.948;2024-03-08T02:45:45;0.80;99.90
20380;DHT22;10349;48.666;8.948;2024-03-08T02:48:11;0.70;99.90
20380;DHT22;10349;48.666;8.948;2024-03-08T02:50:37;0.70;99.90
20380;DHT22;10349;48.666;8.948;2024-03-08T02:53:05;0.70;99.90
20380;DHT22;10349;48.666;8.948;2024-03-08T02:55:31;0.70;99.90
20380;DHT22;10349;48.666;8.948;2024-03-08T02:57:56;0.70;99.90
20380;DHT22;10349;48.666;8.948;2024-03-08T03:00:23;0.70;99.90
20380;DHT22;10349;48.666;8.948;2024-03-08T03:02:49;0.70;99.90
20380;DHT22;10349;48.666;8.948;2024-03-08T03:05:20;0.70;99.90
20380;DHT22;10349;48.666;8.948;2024-03-08T03:07:46;0.60;99.90
20380;DHT22;10349;48.666;8.948;2024-03-08T03:10:13;0.60;99.90
20380;DHT22;10349;48.666;8.948;2024-03-08T03:12:40;0.60;99.90
20380;DHT22;10349;48.666;8.948;2024-03-08T03:15:06;0.50;99.90
20380;DHT22;10349;48.666;8.948;2024-03-08T03:17:32;0.50;99.90
20380;DHT22;10349;48.666;8.948;2024-03-08T03:19:57;0.50;99.90
20380;DHT22;10349;48.666;8.948;2024-03-08T03:22:23;0.50;99.90
20380;DHT22;10349;48.666;8.948;2024-03-08T03:24:51;0.50;99.90
20380;DHT22;10349;48.666;8.948;2024-03-08T03:27:17;0.40;99.90
20380;DHT22;10349;48.666;8.948;2024-03-08T03:29:43;0.40;99.90
20380;DHT22;10349;48.666;8.948;2024-03-08T03:32:12;0.40;99.90
20380;DHT22;10349;48.666;8.948;2024-03-08T03:34:38;0.30;99.90
20380;DHT22;10349;48.666;8.948;2024-03-08T03:37:05;0.30;99.90
20380;DHT22;10349;48.666;8.948;2024-03-08T03:39:32;0.30;99.90
20380;DHT22;10349;48.666;8.948;2024-03-08T03:41:58;0.30;99.90
20380;DHT22;10349;48.666;8.948;2024-03-08T03:44:24;0.30;99.90
20380;DHT22;10349;48.666;8.948;2024-03-08T03:46:50;0.20;99.90
20380;DHT22;10349;48.666;8.948;2024-03-08T03:49:18;0.20;99.90
20380;DHT22;10349;48.666;8.948;2024-03-08T03:51:44;0.20;99.90
20380;DHT22;10349;48.666;8.948;2024-03-08T03:54:10;0.20;99.90
20380;DHT22;10349;48.666;8.948;2024-03-08T03:56:36;0.20;99.90
20380;DHT22;10349;48.666;8.948;2024-03-08T03:59:02;0.20;99.90
20380;DHT22;10349;48.666;8.948;2024-03-08T04:01:27;0.10;99.90
20380;DHT22;10349;48.666;8.948;2024-03-08T04:03:55;0.10;99.90
20380;DHT22;10349;48.666;8.948;2024-03-08T04:06:20;0.10;99.90
20380;DHT22;10349;48.666;8.948;2024-03-08T04:08:48;0.10;99.90
20380;DHT22;10349;48.666;8.948;2024-03-08T04:11:13;0.00;99.90
20380;DHT22;10349;48.666;8.948;2024-03-08T04:13:41;0.00;99.90
20380;DHT22;10349;48.666;8.948;2024-03-08T04:16:07;0.00;99.90
20380;DHT22;10349;48.666;8.948;2024-03-08T04:18:34;0.00;99.90
20380;DHT22;10349;48.666;8.948;2024-03-08T04:21:04;0.00;99.90
20380;DHT22;10349;48.666;8.948;2024-03-08T04:23:33;0.00;99.90
20380;DHT22;10349;48.666;8.948;2024-03-08T04:26:02;-0.10;99.90
20380;DHT22;10349;48.666;8.948;2024-03-08T04:28:27;-0.20;99.90
20380;DHT22;10349;48.666;8.948;2024-03-08T04:30:53;-0.10;99.90
20380;DHT22;10349;48.666;8.948;2024-03-08T04:33:20;-0.20;99.90
20380;DHT22;10349;48.666;8.948;2024-03-08T04:35:47;-0.20;99.90
20380;DHT22;10349;48.666;8.948;2024-03-08T04:38:13;-0.30;99.90
20380;DHT22;10349;48.666;8.948;2024-03-08T04:40:38;-0.30;99.90
20380;DHT22;10349;48.666;8.948;2024-03-08T04:43:05;-0.40;99.90
20380;DHT22;10349;48.666;8.948;2024-03-08T04:45:31;-0.40;99.90
20380;DHT22;10349;48.666;8.948;2024-03-08T04:47:57;-0.50;99.90
20380;DHT22;10349;48.666;8.948;2024-03-08T04:50:23;-0.50;99.90
20380;DHT22;10349;48.666;8.948;2024-03-08T04:52:49;-0.50;99.90
20380;DHT22;10349;48.666;8.948;2024-03-08T04:55:14;-0.50;99.90
20380;DHT22;10349;48.666;8.948;2024-03-08T04:57:40;-0.50;99.90
20380;DHT22;10349;48.666;8.948;2024-03-08T05:00:07;-0.60;99.90
20380;DHT22;10349;48.666;8.948;2024-03-08T05:02:37;-0.60;99.90
20380;DHT22;10349;48.666;8.948;2024-03-08T05:05:05;-0.60;99.90
20380;DHT22;10349;48.666;8.948;2024-03-08T05:07:31;-0.70;99.90
20380;DHT22;10349;48.666;8.948;2024-03-08T05:09:59;-0.80;99.90
20380;DHT22;10349;48.666;8.948;2024-03-08T05:12:24;-0.80;99.90
20380;DHT22;10349;48.666;8.948;2024-03-08T05:14:50;-0.80;99.90
20380;DHT22;10349;48.666;8.948;2024-03-08T05:17:16;-0.90;99.90
20380;DHT22;10349;48.666;8.948;2024-03-08T05:19:42;-0.90;99.90
20380;DHT22;10349;48.666;8.948;2024-03-08T05:22:09;-0.80;99.90
20380;DHT22;10349;48.666;8.948;2024-03-08T05:24:34;-0.90;99.90
20380;DHT22;10349;48.666;8.948;2024-03-08T05:27:01;-0.90;99.90
20380;DHT22;10349;48.666;8.948;2024-03-08T05:29:28;-0.80;99.90
20380;DHT22;10349;48.666;8.948;2024-03-08T05:31:54;-0.90;99.90
20380;DHT22;10349;48.666;8.948;2024-03-08T05:34:21;-0.80;99.90
20380;DHT22;10349;48.666;8.948;2024-03-08T05:36:50;-0.80;99.90
20380;DHT22;10349;48.666;8.948;2024-03-08T05:39:17;-0.80;99.90
20380;DHT22;10349;48.666;8.948;2024-03-08T05:41:43;-0.80;99.90
20380;DHT22;10349;48.666;8.948;2024-03-08T05:44:10;-0.80;99.90
20380;DHT22;10349;48.666;8.948;2024-03-08T05:46:36;-0.80;99.90
20380;DHT22;10349;48.666;8.948;2024-03-08T05:49:02;-0.80;99.90
20380;DHT22;10349;48.666;8.948;2024-03-08T05:51:31;-0.90;99.90
20380;DHT22;10349;48.666;8.948;2024-03-08T05:53:57;-0.90;99.90
20380;DHT22;10349;48.666;8.948;2024-03-08T05:56:23;-0.90;99.90
20380;DHT22;10349;48.666;8.948;2024-03-08T05:58:49;-0.90;99.90
20380;DHT22;10349;48.666;8.948;2024-03-08T06:01:15;-1.00;99.90
20380;DHT22;10349;48.666;8.948;2024-03-08T06:03:41;-1.00;99.90
20380;DHT22;10349;48.666;8.948;2024-03-08T06:06:14;-1.00;99.90
20380;DHT22;10349;48.666;8.948;2024-03-08T06:08:40;-1.00;99.90
20380;DHT22;10349;48.666;8.948;2024-03-08T06:11:05;-1.00;99.90
20380;DHT22;10349;48.666;8.948;2024-03-08T06:13:32;-1.00;99.90
20380;DHT22;10349;48.666;8.948;2024-03-08T06:15:59;-0.90;99.90
20380;DHT22;10349;48.666;8.948;2024-03-08T06:18:26;-0.90;99.90
20380;DHT22;10349;48.666;8.948;2024-03-08T06:20:51;-0.90;99.90
20380;DHT22;10349;48.666;8.948;2024-03-08T06:23:18;-0.80;99.90
20380;DHT22;10349;48.666;8.948;2024-03-08T06:25:44;-0.70;99.90
20380;DHT22;10349;48.666;8.948;2024-03-08T06:28:10;-0.70;99.90
20380;DHT22;10349;48.666;8.948;2024-03-08T06:30:36;-0.70;99.90
20380;DHT22;10349;48.666;8.948;2024-03-08T06:33:01;-0.70;99.90
20380;DHT22;10349;48.666;8.948;2024-03-08T06:35:27;-0.70;99.90
20380;DHT22;10349;48.666;8.948;2024-03-08T06:37:53;-0.70;99.90
20380;DHT22;10349;48.666;8.948;2024-03-08T06:40:19;-0.60;99.90
20380;DHT22;10349;48.666;8.948;2024-03-08T06:42:44;-0.60;99.90
20380;DHT22;10349;48.666;8.948;2024-03-08T06:45:11;-0.50;99.90
20380;DHT22;10349;48.666;8.948;2024-03-08T06:47:37;-0.40;99.90
20380;DHT22;10349;48.666;8.948;2024-03-08T06:50:03;-0.40;99.90
20380;DHT22;10349;48.666;8.948;2024-03-08T06:52:29;-0.40;99.90
20380;DHT22;10349;48.666;8.948;2024-03-08T06:54:55;-0.30;99.90
20380;DHT22;10349;48.666;8.948;2024-03-08T06:57:22;-0.20;99.90
20380;DHT22;10349;48.666;8.948;2024-03-08T06:59:49;-0.20;99.90
20380;DHT22;10349;48.666;8.948;2024-03-08T07:02:14;-0.20;99.90
20380;DHT22;10349;48.666;8.948;2024-03-08T07:04:40;-0.20;99.90
20380;DHT22;10349;48.666;8.948;2024-03-08T07:07:06;-0.10;99.90
20380;DHT22;10349;48.666;8.948;2024-03-08T07:09:38;0.00;99.90
20380;DHT22;10349;48.666;8.948;2024-03-08T07:12:04;0.10;99.90
20380;DHT22;10349;48.666;8.948;2024-03-08T07:14:30;0.10;99.90
20380;DHT22;10349;48.666;8.948;2024-03-08T07:16:56;0.20;99.90
20380;DHT22;10349;48.666;8.948;2024-03-08T07:19:22;0.30;99.90
20380;DHT22;10349;48.666;8.948;2024-03-08T07:21:48;0.40;99.90
20380;DHT22;10349;48.666;8.948;2024-03-08T07:24:14;0.40;99.90
20380;DHT22;10349;48.666;8.948;2024-03-08T07:26:45;0.50;99.90
20380;DHT22;10349;48.666;8.948;2024-03-08T07:29:15;0.60;99.90
20380;DHT22;10349;48.666;8.948;2024-03-08T07:31:41;0.60;99.90
20380;DHT22;10349;48.666;8.948;2024-03-08T07:34:06;0.60;99.90
20380;DHT22;10349;48.666;8.948;2024-03-08T07:36:33;0.70;99.90
20380;DHT22;10349;48.666;8.948;2024-03-08T07:39:00;0.70;99.90
20380;DHT22;10349;48.666;8.948;2024-03-08T07:41:26;0.70;99.90
20380;DHT22;10349;48.666;8.948;2024-03-08T07:43:53;0.80;99.90
20380;DHT22;10349;48.666;8.948;2024-03-08T07:46:18;0.80;99.90
20380;DHT22;10349;48.666;8.948;2024-03-08T07:48:44;0.90;99.90
20380;DHT22;10349;48.666;8.948;2024-03-08T07:51:10;1.00;99.90
20380;DHT22;10349;48.666;8.948;2024-03-08T07:53:38;1.10;99.90
20380;DHT22;10349;48.666;8.948;2024-03-08T07:56:04;1.10;99.90
20380;DHT22;10349;48.666;8.948;2024-03-08T07:58:34;1.10;99.90
20380;DHT22;10349;48.666;8.948;2024-03-08T08:01:00;1.10;99.90
20380;DHT22;10349;48.666;8.948;2024-03-08T08:03:26;1.10;99.90
20380;DHT22;10349;48.666;8.948;2024-03-08T08:05:52;1.20;99.90
20380;DHT22;10349;48.666;8.948;2024-03-08T08:08:19;1.30;99.90
20380;DHT22;10349;48.666;8.948;2024-03-08T08:10:44;1.30;99.90
20380;DHT22;10349;48.666;8.948;2024-03-08T08:13:10;1.30;99.90
20380;DHT22;10349;48.666;8.948;2024-03-08T08:15:36;1.40;99.90
20380;DHT22;10349;48.666;8.948;2024-03-08T08:18:02;1.50;99.90
20380;DHT22;10349;48.666;8.948;2024-03-08T08:20:31;1.50;99.90
20380;DHT22;10349;48.666;8.948;2024-03-08T08:22:57;1.60;99.90
20380;DHT22;10349;48.666;8.948;2024-03-08T08:25:24;1.60;99.90
20380;DHT22;10349;48.666;8.948;2024-03-08T08:27:50;1.70;99.90
20380;DHT22;10349;48.666;8.948;2024-03-08T08:30:15;1.80;99.90
20380;DHT22;10349;48.666;8.948;2024-03-08T08:32:41;1.80;99.90
20380;DHT22;10349;48.666;8.948;2024-03-08T08:35:09;1.80;99.90
20380;DHT22;10349;48.666;8.948;2024-03-08T08:37:39;1.90;99.90
20380;DHT22;10349;48.666;8.948;2024-03-08T08:40:05;1.90;99.90
20380;DHT22;10349;48.666;8.948;2024-03-08T08:42:35;1.90;99.90
20380;DHT22;10349;48.666;8.948;2024-03-08T08:45:01;2.00;99.90
20380;DHT22;10349;48.666;8.948;2024-03-08T08:47:27;2.00;99.90
20380;DHT22;10349;48.666;8.948;2024-03-08T08:49:53;2.00;99.90
20380;DHT22;10349;48.666;8.948;2024-03-08T08:52:19;2.00;99.90
20380;DHT22;10349;48.666;8.948;2024-03-08T08:54:45;2.00;99.90
20380;DHT22;10349;48.666;8.948;2024-03-08T08:57:11;2.00;99.90
20380;DHT22;10349;48.666;8.948;2024-03-08T08:59:37;2.10;99.90
20380;DHT22;10349;48.666;8.948;2024-03-08T09:02:06;2.20;99.90
20380;DHT22;10349;48.666;8.948;2024-03-08T09:04:31;2.20;99.90
20380;DHT22;10349;48.666;8.948;2024-03-08T09:06:57;2.30;99.90
20380;DHT22;10349;48.666;8.948;2024-03-08T09:09:23;2.30;99.90
20380;DHT22;10349;48.666;8.948;2024-03-08T09:11:51;2.30;99.90
20380;DHT22;10349;48.666;8.948;2024-03-08T09:14:17;2.30;99.90
20380;DHT22;10349;48.666;8.948;2024-03-08T09:16:42;2.40;99.90
20380;DHT22;10349;48.666;8.948;2024-03-08T09:19:08;2.40;99.90
20380;DHT22;10349;48.666;8.948;2024-03-08T09:21:36;2.40;99.90
20380;DHT22;10349;48.666;8.948;2024-03-08T09:24:02;2.50;99.90
20380;DHT22;10349;48.666;8.948;2024-03-08T09:26:28;2.60;99.90
20380;DHT22;10349;48.666;8.948;2024-03-08T09:28:54;2.70;99.90
20380;DHT22;10349;48.666;8.948;2024-03-08T09:31:22;2.70;99.90
20380;DHT22;10349;48.666;8.948;2024-03-08T09:33:48;2.70;99.90
20380;DHT22;10349;48.666;8.948;2024-03-08T09:36:13;2.70;99.90
20380;DHT22;10349;48.666;8.948;2024-03-08T09:38:42;2.70;99.90
20380;DHT22;10349;48.666;8.948;2024-03-08T09:41:08;2.80;99.90
20380;DHT22;10349;48.666;8.948;2024-03-08T09:43:36;2.90;99.90
20380;DHT22;10349;48.666;8.948;2024-03-08T09:46:03;2.90;99.90
20380;DHT22;10349;48.666;8.948;2024-03-08T09:48:29;3.00;99.90
20380;DHT22;10349;48.666;8.948;2024-03-08T09:50:55;3.00;99.90
20380;DHT22;10349;48.666;8.948;2024-03-08T09:53:22;3.10;99.90
20380;DHT22;10349;48.666;8.948;2024-03-08T09:55:48;3.10;99.90
20380;DHT22;10349;48.666;8.948;2024-03-08T09:58:15;3.20;99.90
20380;DHT22;10349;48.666;8.948;2024-03-08T10:00:43;3.20;99.90
20380;DHT22;10349;48.666;8.948;2024-03-08T10:03:09;3.20;99.90
20380;DHT22;10349;48.666;8.948;2024-03-08T10:05:36;3.30;99.90
20380;DHT22;10349;48.666;8.948;2024-03-08T10:08:02;3.40;99.90
20380;DHT22;10349;48.666;8.948;2024-03-08T10:10:27;3.30;99.90
20380;DHT22;10349;48.666;8.948;2024-03-08T10:12:53;3.40;99.90
20380;DHT22;10349;48.666;8.948;2024-03-08T10:15:19;3.40;99.90
20380;DHT22;10349;48.666;8.948;2024-03-08T10:17:45;3.40;99.90
20380;DHT22;10349;48.666;8.948;2024-03-08T10:20:18;3.40;99.90
20380;DHT22;10349;48.666;8.948;2024-03-08T10:22:43;3.50;99.90
20380;DHT22;10349;48.666;8.948;2024-03-08T10:25:12;3.50;99.90
20380;DHT22;10349;48.666;8.948;2024-03-08T10:27:39;3.60;99.90
20380;DHT22;10349;48.666;8.948;2024-03-08T10:30:14;3.60;99.90
20380;DHT22;10349;48.666;8.948;2024-03-08T10:32:41;3.70;99.90
20380;DHT22;10349;48.666;8.948;2024-03-08T10:35:10;3.70;99.90
20380;DHT22;10349;48.666;8.948;2024-03-08T10:37:48;3.70;99.90
20380;DHT22;10349;48.666;8.948;2024-03-08T10:40:18;3.80;99.90
20380;DHT22;10349;48.666;8.948;2024-03-08T10:42:55;3.80;99.90
20380;DHT22;10349;48.666;8.948;2024-03-08T10:45:38;3.80;99.90
20380;DHT22;10349;48.666;8.948;2024-03-08T10:48:29;3.70;99.90
20380;DHT22;10349;48.666;8.948;2024-03-08T10:51:02;3.80;99.90
20380;DHT22;10349;48.666;8.948;2024-03-08T10:53:29;3.70;99.90
20380;DHT22;10349;48.666;8.948;2024-03-08T10:55:57;3.80;99.90
20380;DHT22;10349;48.666;8.948;2024-03-08T10:58:24;3.80;99.90
20380;DHT22;10349;48.666;8.948;2024-03-08T11:00:57;3.90;99.90
20380;DHT22;10349;48.666;8.948;2024-03-08T11:06:17;3.90;99.90
20380;DHT22;10349;48.666;8.948;2024-03-08T11:08:44;3.90;99.90
20380;DHT22;10349;48.666;8.948;2024-03-08T11:11:31;3.90;99.90
20380;DHT22;10349;48.666;8.948;2024-03-08T11:13:58;4.00;99.90
20380;DHT22;10349;48.666;8.948;2024-03-08T11:18:54;4.10;99.90
20380;DHT22;10349;48.666;8.948;2024-03-08T11:21:23;4.20;99.90
20380;DHT22;10349;48.666;8.948;2024-03-08T11:24:02;4.20;99.90
20380;DHT22;10349;48.666;8.948;2024-03-08T11:26:29;4.30;99.90
20380;DHT22;10349;48.666;8.948;2024-03-08T11:32:17;4.50;99.90
20380;DHT22;10349;48.666;8.948;2024-03-08T11:34:49;4.70;99.90
20380;DHT22;10349;48.666;8.948;2024-03-08T11:37:18;4.80;99.90
20380;DHT22;10349;48.666;8.948;2024-03-08T11:39:52;4.80;99.90
20380;DHT22;10349;48.666;8.948;2024-03-08T11:42:19;4.80;99.90
20380;DHT22;10349;48.666;8.948;2024-03-08T11:44:50;4.90;99.90
20380;DHT22;10349;48.666;8.948;2024-03-08T11:47:16;4.90;99.90
20380;DHT22;10349;48.666;8.948;2024-03-08T11:49:42;5.00;99.90
20380;DHT22;10349;48.666;8.948;2024-03-08T11:52:12;5.10;99.90
20380;DHT22;10349;48.666;8.948;2024-03-08T11:54:41;5.10;99.90
20380;DHT22;10349;48.666;8.948;2024-03-08T11:57:07;5.20;99.90
20380;DHT22;10349;48.666;8.948;2024-03-08T11:59:34;5.30;99.90
20380;DHT22;10349;48.666;8.948;2024-03-08T12:02:02;5.50;99.90
20380;DHT22;10349;48.666;8.948;2024-03-08T12:04:29;5.60;99.90
20380;DHT22;10349;48.666;8.948;2024-03-08T12:07:00;5.90;99.90
20380;DHT22;10349;48.666;8.948;2024-03-08T12:09:37;6.00;99.90
20380;DHT22;10349;48.666;8.948;2024-03-08T12:12:03;6.20;99.90
20380;DHT22;10349;48.666;8.948;2024-03-08T12:14:30;6.30;99.90
20380;DHT22;10349;48.666;8.948;2024-03-08T12:16:57;6.40;99.90
20380;DHT22;10349;48.666;8.948;2024-03-08T12:19:23;6.60;99.90
20380;DHT22;10349;48.666;8.948;2024-03-08T12:21:49;6.70;99.90
20380;DHT22;10349;48.666;8.948;2024-03-08T12:24:16;6.80;99.90
20380;DHT22;10349;48.666;8.948;2024-03-08T12:26:47;7.00;99.90
20380;DHT22;10349;48.666;8.948;2024-03-08T12:29:21;7.10;99.90
20380;DHT22;10349;48.666;8.948;2024-03-08T12:31:57;7.20;99.90
20380;DHT22;10349;48.666;8.948;2024-03-08T12:34:24;7.30;99.90
20380;DHT22;10349;48.666;8.948;2024-03-08T12:36:51;7.50;99.90
20380;DHT22;10349;48.666;8.948;2024-03-08T12:39:21;7.50;99.90
20380;DHT22;10349;48.666;8.948;2024-03-08T12:41:53;7.50;99.90
20380;DHT22;10349;48.666;8.948;2024-03-08T12:44:20;7.50;99.90
20380;DHT22;10349;48.666;8.948;2024-03-08T12:46:47;7.50;99.90
20380;DHT22;10349;48.666;8.948;2024-03-08T12:49:14;7.50;99.90
20380;DHT22;10349;48.666;8.948;2024-03-08T12:51:46;7.60;99.90
20380;DHT22;10349;48.666;8.948;2024-03-08T12:54:12;7.60;99.90
20380;DHT22;10349;48.666;8.948;2024-03-08T12:56:38;7.60;99.90
20380;DHT22;10349;48.666;8.948;2024-03-08T12:59:09;7.70;99.90
20380;DHT22;10349;48.666;8.948;2024-03-08T13:01:35;7.80;99.90
20380;DHT22;10349;48.666;8.948;2024-03-08T13:04:04;7.90;99.90
20380;DHT22;10349;48.666;8.948;2024-03-08T13:06:32;7.90;99.90
20380;DHT22;10349;48.666;8.948;2024-03-08T13:08:58;7.90;99.90
20380;DHT22;10349;48.666;8.948;2024-03-08T13:11:24;7.90;99.90
20380;DHT22;10349;48.666;8.948;2024-03-08T13:13:53;7.80;99.90
20380;DHT22;10349;48.666;8.948;2024-03-08T13:16:19;7.90;99.90
20380;DHT22;10349;48.666;8.948;2024-03-08T13:18:45;7.90;99.90
20380;DHT22;10349;48.666;8.948;2024-03-08T13:21:14;8.00;99.90
20380;DHT22;10349;48.666;8.948;2024-03-08T13:23:42;7.90;99.90
20380;DHT22;10349;48.666;8.948;2024-03-08T13:26:13;7.90;99.90
20380;DHT22;10349;48.666;8.948;2024-03-08T13:28:48;7.90;99.90
20380;DHT22;10349;48.666;8.948;2024-03-08T13:31:22;7.80;99.90
20380;DHT22;10349;48.666;8.948;2024-03-08T13:33:48;7.80;99.90
20380;DHT22;10349;48.666;8.948;2024-03-08T13:36:15;7.80;99.90
20380;DHT22;10349;48.666;8.948;2024-03-08T13:38:45;7.90;99.90
20380;DHT22;10349;48.666;8.948;2024-03-08T13:41:12;8.00;99.90
20380;DHT22;10349;48.666;8.948;2024-03-08T13:43:45;8.10;99.90
20380;DHT22;10349;48.666;8.948;2024-03-08T13:46:11;8.10;99.90
20380;DHT22;10349;48.666;8.948;2024-03-08T13:48:36;8.20;99.90
20380;DHT22;10349;48.666;8.948;2024-03-08T13:51:06;8.20;99.90
20380;DHT22;10349;48.666;8.948;2024-03-08T13:53:33;8.30;99.90
20380;DHT22;10349;48.666;8.948;2024-03-08T13:56:01;8.40;99.90
20380;DHT22;10349;48.666;8.948;2024-03-08T13:58:27;8.40;99.90
20380;DHT22;10349;48.666;8.948;2024-03-08T14:00:53;8.40;99.90
20380;DHT22;10349;48.666;8.948;2024-03-08T14:03:19;8.40;99.90
20380;DHT22;10349;48.666;8.948;2024-03-08T14:05:46;8.30;99.90
20380;DHT22;10349;48.666;8.948;2024-03-08T14:08:12;8.30;99.90
20380;DHT22;10349;48.666;8.948;2024-03-08T14:10:38;8.30;99.90
20380;DHT22;10349;48.666;8.948;2024-03-08T14:13:04;8.20;99.90
20380;DHT22;10349;48.666;8.948;2024-03-08T14:15:34;8.10;99.90
20380;DHT22;10349;48.666;8.948;2024-03-08T14:18:07;8.00;99.90
20380;DHT22;10349;48.666;8.948;2024-03-08T14:20:32;8.00;99.90
20380;DHT22;10349;48.666;8.948;2024-03-08T14:22:58;8.00;99.90
20380;DHT22;10349;48.666;8.948;2024-03-08T14:25:24;8.10;99.90
20380;DHT22;10349;48.666;8.948;2024-03-08T14:27:51;8.00;99.90
20380;DHT22;10349;48.666;8.948;2024-03-08T14:30:20;8.00;99.90
20380;DHT22;10349;48.666;8.948;2024-03-08T14:32:58;8.10;99.90
20380;DHT22;10349;48.666;8.948;2024-03-08T14:35:27;8.10;99.90
20380;DHT22;10349;48.666;8.948;2024-03-08T14:37:55;8.00;99.90
20380;DHT22;10349;48.666;8.948;2024-03-08T14:40:23;8.00;99.90
20380;DHT22;10349;48.666;8.948;2024-03-08T14:42:49;8.00;99.90
20380;DHT22;10349;48.666;8.948;2024-03-08T14:45:16;8.10;99.90
20380;DHT22;10349;48.666;8.948;2024-03-08T14:47:42;8.00;99.90
20380;DHT22;10349;48.666;8.948;2024-03-08T14:50:09;8.00;99.90
20380;DHT22;10349;48.666;8.948;2024-03-08T14:52:35;8.00;99.90
20380;DHT22;10349;48.666;8.948;2024-03-08T14:55:01;8.00;99.90
20380;DHT22;10349;48.666;8.948;2024-03-08T14:57:29;8.00;99.90
20380;DHT22;10349;48.666;8.948;2024-03-08T14:59:58;7.90;99.90
20380;DHT22;10349;48.666;8.948;2024-03-08T15:02:31;8.00;99.90
20380;DHT22;10349;48.666;8.948;2024-03-08T15:04:57;8.00;99.90
20380;DHT22;10349;48.666;8.948;2024-03-08T15:07:26;8.00;99.90
20380;DHT22;10349;48.666;8.948;2024-03-08T15:09:55;8.00;99.90
20380;DHT22;10349;48.666;8.948;2024-03-08T15:12:22;7.90;99.90
20380;DHT22;10349;48.666;8.948;2024-03-08T15:14:52;7.90;99.90
20380;DHT22;10349;48.666;8.948;2024-03-08T15:17:18;7.90;99.90
20380;DHT22;10349;48.666;8.948;2024-03-08T15:19:49;7.90;99.90
20380;DHT22;10349;48.666;8.948;2024-03-08T15:22:15;8.00;99.90
20380;DHT22;10349;48.666;8.948;2024-03-08T15:24:43;7.90;99.90
20380;DHT22;10349;48.666;8.948;2024-03-08T15:27:09;8.00;99.90
20380;DHT22;10349;48.666;8.948;2024-03-08T15:29:35;7.90;99.90
20380;DHT22;10349;48.666;8.948;2024-03-08T15:32:02;7.80;99.90
20380;DHT22;10349;48.666;8.948;2024-03-08T15:34:28;7.70;99.90
20380;DHT22;10349;48.666;8.948;2024-03-08T15:36:54;7.70;99.90
20380;DHT22;10349;48.666;8.948;2024-03-08T15:39:19;7.80;99.90
20380;DHT22;10349;48.666;8.948;2024-03-08T15:41:49;7.80;99.90
20380;DHT22;10349;48.666;8.948;2024-03-08T15:44:15;7.80;99.90
20380;DHT22;10349;48.666;8.948;2024-03-08T15:46:41;7.80;99.90
20380;DHT22;10349;48.666;8.948;2024-03-08T15:49:07;7.90;99.90
20380;DHT22;10349;48.666;8.948;2024-03-08T15:51:34;7.90;99.90